sensor_id;sensor_type;location;lat;lon;timestamp;P1;durP1;ratioP1;P2;durP2;ratioP2
7359;SDS011;3720;48.274;7.796;2023-04-01T00:00:57;1.05;;;0.40;;
7359;SDS011;3720;48.274;7.796;2023-04-01T00:03:31;0.70;;;0.30;;
7359;SDS011;3720;48.274;7.796;2023-04-01T00:06:05;0.30;;;0.30;;
7359;SDS011;3720;48.274;7.796;2023-04-01T00:08:37;0.60;;;0.40;;
7359;SDS011;3720;48.274;7.796;2023-04-01T00:11:09;1.30;;;0.30;;
7359;SDS011;3720;48.274;7.796;2023-04-01T00:13:41;1.35;;;0.50;;
7359;SDS011;3720;48.274;7.796;2023-04-01T00:16:14;0.60;;;0.30;;
7359;SDS011;3720;48.274;7.796;2023-04-01T00:18:47;0.22;;;0.22;;
7359;SDS011;3720;48.274;7.796;2023-04-01T00:21:20;0.55;;;0.20;;
7359;SDS011;3720;48.274;7.796;2023-04-01T00:23:53;0.52;;;0.30;;
7359;SDS011;3720;48.274;7.796;2023-04-01T00:26:25;0.55;;;0.20;;
7359;SDS011;3720;48.274;7.796;2023-04-01T00:28:58;0.45;;;0.20;;
7359;SDS011;3720;48.274;7.796;2023-04-01T00:31:30;1.42;;;0.20;;
7359;SDS011;3720;48.274;7.796;2023-04-01T00:34:03;0.50;;;0.30;;
7359;SDS011;3720;48.274;7.796;2023-04-01T00:36:35;0.65;;;0.20;;
7359;SDS011;3720;48.274;7.796;2023-04-01T00:39:08;0.30;;;0.20;;
7359;SDS011;3720;48.274;7.796;2023-04-01T00:41:40;1.10;;;0.30;;
7359;SDS011;3720;48.274;7.796;2023-04-01T00:44:14;1.35;;;0.30;;
7359;SDS011;3720;48.274;7.796;2023-04-01T00:46:48;2.42;;;0.50;;
7359;SDS011;3720;48.274;7.796;2023-04-01T00:49:24;0.98;;;0.35;;
7359;SDS011;3720;48.274;7.796;2023-04-01T00:52:00;0.70;;;0.40;;
7359;SDS011;3720;48.274;7.796;2023-04-01T00:54:33;2.72;;;0.50;;
7359;SDS011;3720;48.274;7.796;2023-04-01T00:57:08;0.80;;;0.35;;
7359;SDS011;3720;48.274;7.796;2023-04-01T00:59:45;2.10;;;0.47;;
7359;SDS011;3720;48.274;7.796;2023-04-01T01:02:20;2.17;;;0.52;;
7359;SDS011;3720;48.274;7.796;2023-04-01T01:04:55;0.90;;;0.40;;
7359;SDS011;3720;48.274;7.796;2023-04-01T01:07:28;2.53;;;0.60;;
7359;SDS011;3720;48.274;7.796;2023-04-01T01:10:07;1.95;;;0.47;;
7359;SDS011;3720;48.274;7.796;2023-04-01T01:12:46;1.45;;;0.55;;
7359;SDS011;3720;48.274;7.796;2023-04-01T01:15:26;2.20;;;0.50;;
7359;SDS011;3720;48.274;7.796;2023-04-01T01:18:02;2.65;;;0.65;;
7359;SDS011;3720;48.274;7.796;2023-04-01T01:20:49;5.85;;;0.80;;
7359;SDS011;3720;48.274;7.796;2023-04-01T01:24:05;2.47;;;0.85;;
7359;SDS011;3720;48.274;7.796;2023-04-01T01:27:08;1.77;;;0.60;;
7359;SDS011;3720;48.274;7.796;2023-04-01T01:32:55;6.50;;;1.25;;
7359;SDS011;3720;48.274;7.796;2023-04-01T01:35:54;4.30;;;0.68;;
7359;SDS011;3720;48.274;7.796;2023-04-01T01:38:30;2.42;;;0.68;;
7359;SDS011;3720;48.274;7.796;2023-04-01T01:41:05;2.40;;;0.68;;
7359;SDS011;3720;48.274;7.796;2023-04-01T01:43:40;1.70;;;0.60;;
7359;SDS011;3720;48.274;7.796;2023-04-01T01:46:14;4.63;;;0.82;;
7359;SDS011;3720;48.274;7.796;2023-04-01T01:48:50;4.32;;;1.00;;
7359;SDS011;3720;48.274;7.796;2023-04-01T01:51:26;4.25;;;0.90;;
7359;SDS011;3720;48.274;7.796;2023-04-01T01:53:59;7.32;;;1.20;;
7359;SDS011;3720;48.274;7.796;2023-04-01T01:56:31;3.53;;;0.95;;
7359;SDS011;3720;48.274;7.796;2023-04-01T01:59:07;4.43;;;1.00;;
7359;SDS011;3720;48.274;7.796;2023-04-01T02:01:42;4.80;;;0.93;;
7359;SDS011;3720;48.274;7.796;2023-04-01T02:04:17;6.40;;;1.10;;
7359;SDS011;3720;48.274;7.796;2023-04-01T02:06:53;7.60;;;1.40;;
7359;SDS011;3720;48.274;7.796;2023-04-01T02:09:29;11.70;;;1.77;;
7359;SDS011;3720;48.274;7.796;2023-04-01T02:12:04;9.20;;;1.30;;
7359;SDS011;3720;48.274;7.796;2023-04-01T02:14:39;4.95;;;1.10;;
7359;SDS011;3720;48.274;7.796;2023-04-01T02:19:50;5.13;;;1.10;;
7359;SDS011;3720;48.274;7.796;2023-04-01T02:22:27;8.40;;;1.48;;
7359;SDS011;3720;48.274;7.796;2023-04-01T02:25:03;7.47;;;1.42;;
7359;SDS011;3720;48.274;7.796;2023-04-01T02:27:38;8.60;;;1.67;;
7359;SDS011;3720;48.274;7.796;2023-04-01T02:30:11;11.20;;;1.73;;
7359;SDS011;3720;48.274;7.796;2023-04-01T02:32:45;13.77;;;2.05;;
7359;SDS011;3720;48.274;7.796;2023-04-01T02:35:18;10.93;;;1.52;;
7359;SDS011;3720;48.274;7.796;2023-04-01T02:37:52;8.80;;;1.65;;
7359;SDS011;3720;48.274;7.796;2023-04-01T02:40:26;8.98;;;1.75;;
7359;SDS011;3720;48.274;7.796;2023-04-01T02:42:57;8.80;;;1.63;;
7359;SDS011;3720;48.274;7.796;2023-04-01T02:45:29;10.60;;;1.63;;
7359;SDS011;3720;48.274;7.796;2023-04-01T02:48:01;10.27;;;1.77;;
7359;SDS011;3720;48.274;7.796;2023-04-01T02:50:34;8.68;;;1.35;;
7359;SDS011;3720;48.274;7.796;2023-04-01T02:53:07;8.88;;;1.60;;
7359;SDS011;3720;48.274;7.796;2023-04-01T02:55:39;7.95;;;1.40;;
7359;SDS011;3720;48.274;7.796;2023-04-01T02:58:11;7.90;;;1.50;;
7359;SDS011;3720;48.274;7.796;2023-04-01T03:00:43;7.57;;;1.50;;
7359;SDS011;3720;48.274;7.796;2023-04-01T03:03:15;6.18;;;1.02;;
7359;SDS011;3720;48.274;7.796;2023-04-01T03:05:47;5.72;;;1.10;;
7359;SDS011;3720;48.274;7.796;2023-04-01T03:08:20;5.78;;;1.17;;
7359;SDS011;3720;48.274;7.796;2023-04-01T03:10:52;6.82;;;1.20;;
7359;SDS011;3720;48.274;7.796;2023-04-01T03:13:24;6.03;;;0.93;;
7359;SDS011;3720;48.274;7.796;2023-04-01T03:15:56;7.25;;;1.40;;
7359;SDS011;3720;48.274;7.796;2023-04-01T03:18:27;3.92;;;0.80;;
7359;SDS011;3720;48.274;7.796;2023-04-01T03:21:11;5.22;;;0.88;;
7359;SDS011;3720;48.274;7.796;2023-04-01T03:23:46;2.78;;;0.55;;
7359;SDS011;3720;48.274;7.796;2023-04-01T03:26:18;2.17;;;0.60;;
7359;SDS011;3720;48.274;7.796;2023-04-01T03:28:51;2.67;;;0.60;;
7359;SDS011;3720;48.274;7.796;2023-04-01T03:31:23;1.90;;;0.35;;
7359;SDS011;3720;48.274;7.796;2023-04-01T03:33:56;1.30;;;0.30;;
7359;SDS011;3720;48.274;7.796;2023-04-01T03:36:28;0.98;;;0.40;;
7359;SDS011;3720;48.274;7.796;2023-04-01T03:39:01;0.93;;;0.20;;
7359;SDS011;3720;48.274;7.796;2023-04-01T03:41:35;1.33;;;0.20;;
7359;SDS011;3720;48.274;7.796;2023-04-01T03:44:08;0.63;;;0.30;;
7359;SDS011;3720;48.274;7.796;2023-04-01T03:46:40;0.90;;;0.22;;
7359;SDS011;3720;48.274;7.796;2023-04-01T03:49:12;0.50;;;0.30;;
7359;SDS011;3720;48.274;7.796;2023-04-01T03:51:45;0.40;;;0.20;;
7359;SDS011;3720;48.274;7.796;2023-04-01T03:54:18;0.30;;;0.20;;
7359;SDS011;3720;48.274;7.796;2023-04-01T03:56:50;0.85;;;0.30;;
7359;SDS011;3720;48.274;7.796;2023-04-01T03:59:22;1.83;;;0.30;;
7359;SDS011;3720;48.274;7.796;2023-04-01T04:01:54;3.15;;;0.82;;
7359;SDS011;3720;48.274;7.796;2023-04-01T04:04:26;3.63;;;0.80;;
7359;SDS011;3720;48.274;7.796;2023-04-01T04:07:00;6.07;;;1.15;;
7359;SDS011;3720;48.274;7.796;2023-04-01T04:09:33;7.30;;;1.48;;
7359;SDS011;3720;48.274;7.796;2023-04-01T04:12:05;6.88;;;1.60;;
7359;SDS011;3720;48.274;7.796;2023-04-01T04:14:37;8.27;;;1.63;;
7359;SDS011;3720;48.274;7.796;2023-04-01T04:17:09;10.98;;;2.03;;
7359;SDS011;3720;48.274;7.796;2023-04-01T04:19:46;8.13;;;1.73;;
7359;SDS011;3720;48.274;7.796;2023-04-01T04:22:17;5.07;;;1.27;;
7359;SDS011;3720;48.274;7.796;2023-04-01T04:24:51;5.30;;;1.30;;
7359;SDS011;3720;48.274;7.796;2023-04-01T04:27:23;4.03;;;0.95;;
7359;SDS011;3720;48.274;7.796;2023-04-01T04:29:55;5.20;;;1.02;;
7359;SDS011;3720;48.274;7.796;2023-04-01T04:32:27;5.68;;;0.80;;
7359;SDS011;3720;48.274;7.796;2023-04-01T04:34:59;3.10;;;0.80;;
7359;SDS011;3720;48.274;7.796;2023-04-01T04:37:31;3.90;;;0.73;;
7359;SDS011;3720;48.274;7.796;2023-04-01T04:40:05;3.08;;;0.60;;
7359;SDS011;3720;48.274;7.796;2023-04-01T04:42:39;3.80;;;0.80;;
7359;SDS011;3720;48.274;7.796;2023-04-01T04:45:12;3.33;;;0.63;;
7359;SDS011;3720;48.274;7.796;2023-04-01T04:47:44;3.10;;;0.60;;
7359;SDS011;3720;48.274;7.796;2023-04-01T04:50:16;3.35;;;0.70;;
7359;SDS011;3720;48.274;7.796;2023-04-01T04:52:48;5.05;;;0.90;;
7359;SDS011;3720;48.274;7.796;2023-04-01T04:55:21;7.05;;;1.30;;
7359;SDS011;3720;48.274;7.796;2023-04-01T04:57:53;5.57;;;1.10;;
7359;SDS011;3720;48.274;7.796;2023-04-01T05:00:25;6.30;;;1.10;;
7359;SDS011;3720;48.274;7.796;2023-04-01T05:02:57;4.95;;;1.10;;
7359;SDS011;3720;48.274;7.796;2023-04-01T05:05:29;7.60;;;1.27;;
7359;SDS011;3720;48.274;7.796;2023-04-01T05:08:01;6.05;;;1.27;;
7359;SDS011;3720;48.274;7.796;2023-04-01T05:10:35;7.55;;;1.00;;
7359;SDS011;3720;48.274;7.796;2023-04-01T05:13:07;6.80;;;1.20;;
7359;SDS011;3720;48.274;7.796;2023-04-01T05:15:39;7.40;;;1.25;;
7359;SDS011;3720;48.274;7.796;2023-04-01T05:18:11;7.63;;;1.10;;
7359;SDS011;3720;48.274;7.796;2023-04-01T05:20:47;6.00;;;1.25;;
7359;SDS011;3720;48.274;7.796;2023-04-01T05:23:20;9.00;;;1.30;;
7359;SDS011;3720;48.274;7.796;2023-04-01T05:25:55;5.95;;;1.20;;
7359;SDS011;3720;48.274;7.796;2023-04-01T05:28:27;10.23;;;1.70;;
7359;SDS011;3720;48.274;7.796;2023-04-01T05:30:59;7.78;;;1.40;;
7359;SDS011;3720;48.274;7.796;2023-04-01T05:33:31;11.15;;;1.90;;
7359;SDS011;3720;48.274;7.796;2023-04-01T05:36:06;9.93;;;1.65;;
7359;SDS011;3720;48.274;7.796;2023-04-01T05:38:39;11.93;;;2.30;;
7359;SDS011;3720;48.274;7.796;2023-04-01T05:41:14;11.35;;;1.52;;
7359;SDS011;3720;48.274;7.796;2023-04-01T05:43:46;9.35;;;1.67;;
7359;SDS011;3720;48.274;7.796;2023-04-01T05:46:19;7.80;;;1.80;;
7359;SDS011;3720;48.274;7.796;2023-04-01T05:48:50;8.20;;;1.73;;
7359;SDS011;3720;48.274;7.796;2023-04-01T05:51:22;11.63;;;1.40;;
7359;SDS011;3720;48.274;7.796;2023-04-01T05:53:54;8.55;;;1.63;;
7359;SDS011;3720;48.274;7.796;2023-04-01T05:56:28;9.77;;;1.73;;
7359;SDS011;3720;48.274;7.796;2023-04-01T05:58:59;8.15;;;1.42;;
7359;SDS011;3720;48.274;7.796;2023-04-01T06:01:32;7.60;;;1.40;;
7359;SDS011;3720;48.274;7.796;2023-04-01T06:04:04;7.43;;;1.50;;
7359;SDS011;3720;48.274;7.796;2023-04-01T06:06:36;5.75;;;1.30;;
7359;SDS011;3720;48.274;7.796;2023-04-01T06:09:12;6.97;;;1.30;;
7359;SDS011;3720;48.274;7.796;2023-04-01T06:12:00;7.30;;;1.33;;
7359;SDS011;3720;48.274;7.796;2023-04-01T06:14:59;11.05;;;1.50;;
7359;SDS011;3720;48.274;7.796;2023-04-01T06:17:48;7.97;;;1.50;;
7359;SDS011;3720;48.274;7.796;2023-04-01T06:20:35;7.00;;;1.58;;
7359;SDS011;3720;48.274;7.796;2023-04-01T06:23:23;8.48;;;1.48;;
7359;SDS011;3720;48.274;7.796;2023-04-01T06:26:12;7.55;;;1.30;;
7359;SDS011;3720;48.274;7.796;2023-04-01T06:29:19;4.95;;;1.38;;
7359;SDS011;3720;48.274;7.796;2023-04-01T06:32:09;5.05;;;1.25;;
7359;SDS011;3720;48.274;7.796;2023-04-01T06:35:02;10.32;;;1.80;;
7359;SDS011;3720;48.274;7.796;2023-04-01T06:37:51;10.82;;;1.67;;
7359;SDS011;3720;48.274;7.796;2023-04-01T06:40:51;7.80;;;1.25;;
7359;SDS011;3720;48.274;7.796;2023-04-01T06:43:57;5.93;;;1.13;;
7359;SDS011;3720;48.274;7.796;2023-04-01T06:46:39;8.88;;;1.33;;
7359;SDS011;3720;48.274;7.796;2023-04-01T06:49:21;7.45;;;1.30;;
7359;SDS011;3720;48.274;7.796;2023-04-01T06:52:06;7.85;;;1.52;;
7359;SDS011;3720;48.274;7.796;2023-04-01T06:54:47;9.38;;;1.58;;
7359;SDS011;3720;48.274;7.796;2023-04-01T06:57:24;7.13;;;1.40;;
7359;SDS011;3720;48.274;7.796;2023-04-01T07:00:03;4.10;;;1.10;;
7359;SDS011;3720;48.274;7.796;2023-04-01T07:02:45;5.70;;;1.05;;
7359;SDS011;3720;48.274;7.796;2023-04-01T07:05:23;5.60;;;1.13;;
7359;SDS011;3720;48.274;7.796;2023-04-01T07:08:01;5.53;;;1.13;;
7359;SDS011;3720;48.274;7.796;2023-04-01T07:10:39;5.63;;;1.10;;
7359;SDS011;3720;48.274;7.796;2023-04-01T07:13:19;7.93;;;1.15;;
7359;SDS011;3720;48.274;7.796;2023-04-01T07:15:58;5.10;;;0.90;;
7359;SDS011;3720;48.274;7.796;2023-04-01T07:18:38;6.15;;;1.08;;
7359;SDS011;3720;48.274;7.796;2023-04-01T07:21:20;7.75;;;1.05;;
7359;SDS011;3720;48.274;7.796;2023-04-01T07:23:57;1.65;;;0.65;;
7359;SDS011;3720;48.274;7.796;2023-04-01T07:26:34;4.00;;;0.95;;
7359;SDS011;3720;48.274;7.796;2023-04-01T07:29:08;5.10;;;1.10;;
7359;SDS011;3720;48.274;7.796;2023-04-01T07:31:48;3.90;;;0.80;;
7359;SDS011;3720;48.274;7.796;2023-04-01T07:34:34;4.25;;;0.85;;
7359;SDS011;3720;48.274;7.796;2023-04-01T07:37:17;4.40;;;0.80;;
7359;SDS011;3720;48.274;7.796;2023-04-01T07:39:56;5.00;;;0.85;;
7359;SDS011;3720;48.274;7.796;2023-04-01T07:42:41;4.82;;;0.80;;
7359;SDS011;3720;48.274;7.796;2023-04-01T07:45:29;3.13;;;0.80;;
7359;SDS011;3720;48.274;7.796;2023-04-01T07:48:08;4.00;;;0.90;;
7359;SDS011;3720;48.274;7.796;2023-04-01T07:50:54;3.83;;;1.08;;
7359;SDS011;3720;48.274;7.796;2023-04-01T07:53:34;3.00;;;0.80;;
7359;SDS011;3720;48.274;7.796;2023-04-01T07:56:11;7.10;;;0.80;;
7359;SDS011;3720;48.274;7.796;2023-04-01T07:58:51;5.25;;;0.90;;
7359;SDS011;3720;48.274;7.796;2023-04-01T08:01:31;4.28;;;0.98;;
7359;SDS011;3720;48.274;7.796;2023-04-01T08:06:51;3.33;;;0.88;;
7359;SDS011;3720;48.274;7.796;2023-04-01T08:09:30;3.60;;;0.98;;
7359;SDS011;3720;48.274;7.796;2023-04-01T08:12:12;6.50;;;0.93;;
7359;SDS011;3720;48.274;7.796;2023-04-01T08:14:55;3.15;;;0.70;;
7359;SDS011;3720;48.274;7.796;2023-04-01T08:17:36;3.40;;;0.90;;
7359;SDS011;3720;48.274;7.796;2023-04-01T08:22:59;5.18;;;1.17;;
7359;SDS011;3720;48.274;7.796;2023-04-01T08:25:39;5.80;;;0.80;;
7359;SDS011;3720;48.274;7.796;2023-04-01T08:28:19;3.30;;;0.80;;
7359;SDS011;3720;48.274;7.796;2023-04-01T08:30:55;5.57;;;0.95;;
7359;SDS011;3720;48.274;7.796;2023-04-01T08:33:32;5.65;;;0.70;;
7359;SDS011;3720;48.274;7.796;2023-04-01T08:36:05;3.28;;;0.77;;
7359;SDS011;3720;48.274;7.796;2023-04-01T08:38:41;3.95;;;0.88;;
7359;SDS011;3720;48.274;7.796;2023-04-01T08:41:20;4.18;;;0.82;;
7359;SDS011;3720;48.274;7.796;2023-04-01T08:50:12;3.45;;;0.90;;
7359;SDS011;3720;48.274;7.796;2023-04-01T08:53:15;3.97;;;0.98;;
7359;SDS011;3720;48.274;7.796;2023-04-01T08:56:02;4.85;;;1.00;;
7359;SDS011;3720;48.274;7.796;2023-04-01T09:02:02;3.85;;;0.80;;
7359;SDS011;3720;48.274;7.796;2023-04-01T09:04:57;1.55;;;0.70;;
7359;SDS011;3720;48.274;7.796;2023-04-01T09:07:51;3.13;;;0.90;;
7359;SDS011;3720;48.274;7.796;2023-04-01T09:10:41;3.67;;;0.90;;
7359;SDS011;3720;48.274;7.796;2023-04-01T09:13:31;3.78;;;1.00;;
7359;SDS011;3720;48.274;7.796;2023-04-01T09:16:20;3.30;;;1.15;;
7359;SDS011;3720;48.274;7.796;2023-04-01T09:19:03;4.50;;;1.10;;
7359;SDS011;3720;48.274;7.796;2023-04-01T09:21:51;3.22;;;0.70;;
7359;SDS011;3720;48.274;7.796;2023-04-01T09:24:35;2.53;;;0.85;;
7359;SDS011;3720;48.274;7.796;2023-04-01T09:27:19;3.15;;;0.90;;
7359;SDS011;3720;48.274;7.796;2023-04-01T09:36:43;3.92;;;0.80;;
7359;SDS011;3720;48.274;7.796;2023-04-01T09:39:20;3.05;;;1.00;;
7359;SDS011;3720;48.274;7.796;2023-04-01T09:45:19;4.82;;;1.10;;
7359;SDS011;3720;48.274;7.796;2023-04-01T09:48:07;3.50;;;1.02;;
7359;SDS011;3720;48.274;7.796;2023-04-01T09:50:49;3.55;;;1.10;;
7359;SDS011;3720;48.274;7.796;2023-04-01T09:53:34;2.97;;;1.15;;
7359;SDS011;3720;48.274;7.796;2023-04-01T09:59:45;4.10;;;1.30;;
7359;SDS011;3720;48.274;7.796;2023-04-01T10:05:44;4.03;;;1.17;;
7359;SDS011;3720;48.274;7.796;2023-04-01T10:15:15;4.18;;;1.27;;
7359;SDS011;3720;48.274;7.796;2023-04-01T10:18:18;2.95;;;0.90;;
7359;SDS011;3720;48.274;7.796;2023-04-01T10:21:16;3.63;;;0.98;;
7359;SDS011;3720;48.274;7.796;2023-04-01T10:24:24;4.38;;;0.80;;
7359;SDS011;3720;48.274;7.796;2023-04-01T10:27:21;2.78;;;0.85;;
7359;SDS011;3720;48.274;7.796;2023-04-01T10:30:13;3.08;;;0.80;;
7359;SDS011;3720;48.274;7.796;2023-04-01T10:36:21;2.22;;;0.65;;
7359;SDS011;3720;48.274;7.796;2023-04-01T10:42:40;3.33;;;0.60;;
7359;SDS011;3720;48.274;7.796;2023-04-01T10:48:57;2.28;;;0.80;;
7359;SDS011;3720;48.274;7.796;2023-04-01T10:52:00;3.13;;;0.82;;
7359;SDS011;3720;48.274;7.796;2023-04-01T10:54:56;3.20;;;0.77;;
7359;SDS011;3720;48.274;7.796;2023-04-01T10:57:55;3.60;;;0.93;;
7359;SDS011;3720;48.274;7.796;2023-04-01T11:00:49;2.63;;;0.70;;
7359;SDS011;3720;48.274;7.796;2023-04-01T11:03:40;2.83;;;0.80;;
7359;SDS011;3720;48.274;7.796;2023-04-01T11:09:56;4.65;;;0.70;;
7359;SDS011;3720;48.274;7.796;2023-04-01T11:13:01;2.03;;;0.75;;
7359;SDS011;3720;48.274;7.796;2023-04-01T11:16:09;3.67;;;0.80;;
7359;SDS011;3720;48.274;7.796;2023-04-01T11:19:17;2.20;;;0.80;;
7359;SDS011;3720;48.274;7.796;2023-04-01T11:22:15;2.35;;;0.50;;
7359;SDS011;3720;48.274;7.796;2023-04-01T11:25:36;1.92;;;0.60;;
7359;SDS011;3720;48.274;7.796;2023-04-01T11:28:24;1.65;;;0.52;;
7359;SDS011;3720;48.274;7.796;2023-04-01T11:31:19;2.55;;;0.70;;
7359;SDS011;3720;48.274;7.796;2023-04-01T11:34:02;3.30;;;0.70;;
7359;SDS011;3720;48.274;7.796;2023-04-01T11:36:46;1.20;;;0.50;;
7359;SDS011;3720;48.274;7.796;2023-04-01T11:39:29;1.27;;;0.60;;
7359;SDS011;3720;48.274;7.796;2023-04-01T11:42:11;0.98;;;0.55;;
7359;SDS011;3720;48.274;7.796;2023-04-01T11:44:53;1.83;;;0.60;;
7359;SDS011;3720;48.274;7.796;2023-04-01T11:47:42;1.45;;;0.47;;
7359;SDS011;3720;48.274;7.796;2023-04-01T11:50:31;2.22;;;0.77;;
7359;SDS011;3720;48.274;7.796;2023-04-01T11:53:18;2.43;;;0.60;;
7359;SDS011;3720;48.274;7.796;2023-04-01T11:56:07;1.45;;;0.60;;
7359;SDS011;3720;48.274;7.796;2023-04-01T11:58:48;2.40;;;0.60;;
7359;SDS011;3720;48.274;7.796;2023-04-01T12:01:41;1.15;;;0.50;;
7359;SDS011;3720;48.274;7.796;2023-04-01T12:04:27;1.83;;;0.65;;
7359;SDS011;3720;48.274;7.796;2023-04-01T12:07:14;1.55;;;0.52;;
7359;SDS011;3720;48.274;7.796;2023-04-01T12:09:55;1.55;;;0.47;;
7359;SDS011;3720;48.274;7.796;2023-04-01T12:12:35;0.98;;;0.57;;
7359;SDS011;3720;48.274;7.796;2023-04-01T12:15:16;1.60;;;0.52;;
7359;SDS011;3720;48.274;7.796;2023-04-01T12:18:00;1.17;;;0.40;;
7359;SDS011;3720;48.274;7.796;2023-04-01T12:20:43;1.17;;;0.40;;
7359;SDS011;3720;48.274;7.796;2023-04-01T12:23:24;0.47;;;0.30;;
7359;SDS011;3720;48.274;7.796;2023-04-01T12:26:15;0.73;;;0.45;;
7359;SDS011;3720;48.274;7.796;2023-04-01T12:29:02;0.60;;;0.40;;
7359;SDS011;3720;48.274;7.796;2023-04-01T12:31:47;0.82;;;0.40;;
7359;SDS011;3720;48.274;7.796;2023-04-01T12:34:44;0.60;;;0.50;;
7359;SDS011;3720;48.274;7.796;2023-04-01T12:37:29;0.80;;;0.38;;
7359;SDS011;3720;48.274;7.796;2023-04-01T12:40:17;1.08;;;0.50;;
7359;SDS011;3720;48.274;7.796;2023-04-01T12:43:02;0.93;;;0.52;;
7359;SDS011;3720;48.274;7.796;2023-04-01T12:45:53;1.65;;;0.60;;
7359;SDS011;3720;48.274;7.796;2023-04-01T12:51:46;1.75;;;0.50;;
7359;SDS011;3720;48.274;7.796;2023-04-01T12:54:50;2.35;;;0.70;;
7359;SDS011;3720;48.274;7.796;2023-04-01T12:58:08;1.55;;;0.50;;
7359;SDS011;3720;48.274;7.796;2023-04-01T13:01:19;3.28;;;0.80;;
7359;SDS011;3720;48.274;7.796;2023-04-01T13:04:15;1.25;;;0.68;;
7359;SDS011;3720;48.274;7.796;2023-04-01T13:10:02;1.73;;;0.80;;
7359;SDS011;3720;48.274;7.796;2023-04-01T13:12:49;1.85;;;0.70;;
7359;SDS011;3720;48.274;7.796;2023-04-01T13:15:44;2.33;;;0.70;;
7359;SDS011;3720;48.274;7.796;2023-04-01T13:18:24;1.55;;;0.65;;
7359;SDS011;3720;48.274;7.796;2023-04-01T13:21:05;4.93;;;0.95;;
7359;SDS011;3720;48.274;7.796;2023-04-01T13:23:49;1.30;;;0.60;;
7359;SDS011;3720;48.274;7.796;2023-04-01T13:26:34;1.40;;;0.80;;
7359;SDS011;3720;48.274;7.796;2023-04-01T13:29:13;0.98;;;0.60;;
7359;SDS011;3720;48.274;7.796;2023-04-01T13:31:53;2.30;;;0.80;;
7359;SDS011;3720;48.274;7.796;2023-04-01T13:34:35;1.95;;;0.80;;
7359;SDS011;3720;48.274;7.796;2023-04-01T13:37:24;1.45;;;0.65;;
7359;SDS011;3720;48.274;7.796;2023-04-01T13:40:21;2.67;;;0.80;;
7359;SDS011;3720;48.274;7.796;2023-04-01T13:42:59;1.55;;;0.77;;
7359;SDS011;3720;48.274;7.796;2023-04-01T13:48:25;1.48;;;0.63;;
7359;SDS011;3720;48.274;7.796;2023-04-01T13:51:15;1.98;;;0.77;;
7359;SDS011;3720;48.274;7.796;2023-04-01T13:54:10;2.35;;;0.73;;
7359;SDS011;3720;48.274;7.796;2023-04-01T13:56:57;3.00;;;0.82;;
7359;SDS011;3720;48.274;7.796;2023-04-01T13:59:46;1.27;;;0.57;;
7359;SDS011;3720;48.274;7.796;2023-04-01T14:05:34;1.33;;;0.50;;
7359;SDS011;3720;48.274;7.796;2023-04-01T14:08:36;1.65;;;0.70;;
7359;SDS011;3720;48.274;7.796;2023-04-01T14:11:21;1.83;;;0.70;;
7359;SDS011;3720;48.274;7.796;2023-04-01T14:13:59;1.33;;;0.70;;
7359;SDS011;3720;48.274;7.796;2023-04-01T14:19:40;1.30;;;0.60;;
7359;SDS011;3720;48.274;7.796;2023-04-01T14:22:34;4.05;;;0.73;;
7359;SDS011;3720;48.274;7.796;2023-04-01T14:25:29;2.08;;;0.52;;
7359;SDS011;3720;48.274;7.796;2023-04-01T14:28:15;1.65;;;0.60;;
7359;SDS011;3720;48.274;7.796;2023-04-01T14:31:04;1.95;;;0.70;;
7359;SDS011;3720;48.274;7.796;2023-04-01T14:33:47;2.38;;;0.80;;
7359;SDS011;3720;48.274;7.796;2023-04-01T14:36:32;1.50;;;0.70;;
7359;SDS011;3720;48.274;7.796;2023-04-01T14:42:19;1.52;;;0.50;;
7359;SDS011;3720;48.274;7.796;2023-04-01T14:45:12;1.10;;;0.70;;
7359;SDS011;3720;48.274;7.796;2023-04-01T14:48:14;1.58;;;0.82;;
7359;SDS011;3720;48.274;7.796;2023-04-01T14:50:53;3.30;;;1.00;;
7359;SDS011;3720;48.274;7.796;2023-04-01T14:53:29;2.08;;;0.80;;
7359;SDS011;3720;48.274;7.796;2023-04-01T14:56:06;1.80;;;0.77;;
7359;SDS011;3720;48.274;7.796;2023-04-01T14:58:41;2.10;;;0.77;;
7359;SDS011;3720;48.274;7.796;2023-04-01T15:03:58;0.70;;;0.60;;
7359;SDS011;3720;48.274;7.796;2023-04-01T15:06:43;1.95;;;0.60;;
7359;SDS011;3720;48.274;7.796;2023-04-01T15:09:28;2.25;;;0.60;;
7359;SDS011;3720;48.274;7.796;2023-04-01T15:12:14;2.85;;;0.70;;
7359;SDS011;3720;48.274;7.796;2023-04-01T15:14:59;1.20;;;0.60;;
7359;SDS011;3720;48.274;7.796;2023-04-01T15:17:45;1.35;;;0.60;;
7359;SDS011;3720;48.274;7.796;2023-04-01T15:23:35;2.97;;;0.80;;
7359;SDS011;3720;48.274;7.796;2023-04-01T15:26:22;1.25;;;0.52;;
7359;SDS011;3720;48.274;7.796;2023-04-01T15:29:17;1.90;;;0.70;;
7359;SDS011;3720;48.274;7.796;2023-04-01T15:32:05;0.95;;;0.50;;
7359;SDS011;3720;48.274;7.796;2023-04-01T15:34:50;1.15;;;0.50;;
7359;SDS011;3720;48.274;7.796;2023-04-01T15:37:32;2.05;;;0.63;;
7359;SDS011;3720;48.274;7.796;2023-04-01T15:40:15;0.80;;;0.50;;
7359;SDS011;3720;48.274;7.796;2023-04-01T15:42:55;0.85;;;0.40;;
7359;SDS011;3720;48.274;7.796;2023-04-01T15:45:39;2.95;;;0.47;;
7359;SDS011;3720;48.274;7.796;2023-04-01T15:48:28;1.33;;;0.50;;
7359;SDS011;3720;48.274;7.796;2023-04-01T15:51:11;2.08;;;0.77;;
7359;SDS011;3720;48.274;7.796;2023-04-01T15:53:57;1.40;;;0.70;;
7359;SDS011;3720;48.274;7.796;2023-04-01T15:56:51;1.17;;;0.70;;
7359;SDS011;3720;48.274;7.796;2023-04-01T15:59:39;2.80;;;0.90;;
7359;SDS011;3720;48.274;7.796;2023-04-01T16:02:22;3.90;;;1.05;;
7359;SDS011;3720;48.274;7.796;2023-04-01T16:05:04;1.15;;;0.60;;
7359;SDS011;3720;48.274;7.796;2023-04-01T16:07:48;1.02;;;0.40;;
7359;SDS011;3720;48.274;7.796;2023-04-01T16:10:44;1.85;;;0.50;;
7359;SDS011;3720;48.274;7.796;2023-04-01T16:13:42;1.67;;;0.50;;
7359;SDS011;3720;48.274;7.796;2023-04-01T16:16:23;1.17;;;0.40;;
7359;SDS011;3720;48.274;7.796;2023-04-01T16:19:07;1.58;;;0.60;;
7359;SDS011;3720;48.274;7.796;2023-04-01T16:21:59;2.35;;;0.65;;
7359;SDS011;3720;48.274;7.796;2023-04-01T16:24:38;1.45;;;0.50;;
7359;SDS011;3720;48.274;7.796;2023-04-01T16:27:16;0.88;;;0.65;;
7359;SDS011;3720;48.274;7.796;2023-04-01T16:29:57;2.33;;;0.65;;
7359;SDS011;3720;48.274;7.796;2023-04-01T16:32:41;1.55;;;0.70;;
7359;SDS011;3720;48.274;7.796;2023-04-01T16:35:25;1.55;;;0.73;;
7359;SDS011;3720;48.274;7.796;2023-04-01T16:38:07;1.05;;;0.60;;
7359;SDS011;3720;48.274;7.796;2023-04-01T16:40:50;1.80;;;0.70;;
7359;SDS011;3720;48.274;7.796;2023-04-01T16:43:35;2.67;;;0.63;;
7359;SDS011;3720;48.274;7.796;2023-04-01T16:46:32;1.42;;;0.68;;
7359;SDS011;3720;48.274;7.796;2023-04-01T16:49:17;1.25;;;0.57;;
7359;SDS011;3720;48.274;7.796;2023-04-01T16:55:01;1.00;;;0.60;;
7359;SDS011;3720;48.274;7.796;2023-04-01T16:57:46;1.17;;;0.60;;
7359;SDS011;3720;48.274;7.796;2023-04-01T17:00:23;1.45;;;0.80;;
7359;SDS011;3720;48.274;7.796;2023-04-01T17:03:01;4.80;;;0.80;;
7359;SDS011;3720;48.274;7.796;2023-04-01T17:05:42;2.22;;;0.90;;
7359;SDS011;3720;48.274;7.796;2023-04-01T17:08:28;3.80;;;0.82;;
7359;SDS011;3720;48.274;7.796;2023-04-01T17:11:11;1.70;;;1.00;;
7359;SDS011;3720;48.274;7.796;2023-04-01T17:13:50;3.10;;;1.27;;
7359;SDS011;3720;48.274;7.796;2023-04-01T17:16:32;2.10;;;1.00;;
7359;SDS011;3720;48.274;7.796;2023-04-01T17:19:22;2.28;;;1.10;;
7359;SDS011;3720;48.274;7.796;2023-04-01T17:24:48;2.00;;;0.90;;
7359;SDS011;3720;48.274;7.796;2023-04-01T17:27:36;1.30;;;0.70;;
7359;SDS011;3720;48.274;7.796;2023-04-01T17:30:17;2.58;;;0.75;;
7359;SDS011;3720;48.274;7.796;2023-04-01T17:35:38;1.20;;;0.77;;
7359;SDS011;3720;48.274;7.796;2023-04-01T17:38:17;3.45;;;1.33;;
7359;SDS011;3720;48.274;7.796;2023-04-01T17:40:59;1.98;;;1.20;;
7359;SDS011;3720;48.274;7.796;2023-04-01T17:43:38;3.03;;;0.85;;
7359;SDS011;3720;48.274;7.796;2023-04-01T17:46:24;1.58;;;1.15;;
7359;SDS011;3720;48.274;7.796;2023-04-01T17:51:49;2.22;;;1.20;;
7359;SDS011;3720;48.274;7.796;2023-04-01T17:54:28;2.33;;;1.13;;
7359;SDS011;3720;48.274;7.796;2023-04-01T17:57:22;1.85;;;1.20;;
7359;SDS011;3720;48.274;7.796;2023-04-01T18:00:02;3.72;;;1.50;;
7359;SDS011;3720;48.274;7.796;2023-04-01T18:02:45;4.00;;;1.40;;
7359;SDS011;3720;48.274;7.796;2023-04-01T18:05:30;2.22;;;1.40;;
7359;SDS011;3720;48.274;7.796;2023-04-01T18:08:13;2.75;;;1.55;;
7359;SDS011;3720;48.274;7.796;2023-04-01T18:10:51;2.65;;;1.30;;
7359;SDS011;3720;48.274;7.796;2023-04-01T18:16:26;2.40;;;1.30;;
7359;SDS011;3720;48.274;7.796;2023-04-01T18:19:09;2.20;;;1.27;;